Paula Ruble — WDF2276 — position and weather

sailwx.info

Track history (hours):
 
Tides and Currents Weather Stations Pressure Air Temp Water Temp Dewpoint Dewpoint Depression Visibility Wind Speed Wind Dir Waves Ship Positions

Paula Ruble

Owner: Crounse Corporation, Maysville, KY. More information available from US FCC via Universal Licensing System and Coast Guard Vessel Documentation Center.

Last reported at 2015-May-23 15:25 UTC. Time now 2015-May-24 23:23 UTC.
Position N 38°38' W 083°41'.

Length 42 m.

Type: Tow > 200 m length. MMSI: 367426860.

Date/timePositionNaut miles runAvg speedWind from/ knotsBaromVisibWave heightAir tempDewpointWater temp
2015-May-23 15:25N 38°38' W 083°41'7 3.5
2015-May-23 13:27N 38°42' W 083°48'3 3.6
2015-May-23 12:32N 38°44' W 083°51'4 3.8
2015-May-23 11:33N 38°46' W 083°55'4 3.7
2015-May-23 10:27N 38°47' W 084°00'4 4.2
2015-May-23 09:33N 38°46' W 084°05'4 4.2
2015-May-23 08:33N 38°48' W 084°10'0 0.5
2015-May-23 07:33N 38°48' W 084°11'3 3.1
2015-May-23 06:32N 38°50' W 084°14'3 3.5
2015-May-23 05:33N 38°53' W 084°14'3 3.3
2015-May-23 04:33N 38°56' W 084°16'3 3.4
2015-May-23 03:33N 38°59' W 084°18'3 3.3
2015-May-23 02:32N 39°02' W 084°21'4 3.6
2015-May-23 01:33N 39°03' W 084°25'3 3.4
2015-May-23 00:33N 39°06' W 084°26'3 2.5
2015-May-22 23:33N 39°06' W 084°30'3 3.0
2015-May-22 22:33N 39°06' W 084°33'3 3.4
2015-May-22 21:33N 39°04' W 084°37'4 3.6
2015-May-22 20:33N 39°06' W 084°41'4 3.7
2015-May-22 19:33N 39°09' W 084°45'5 0.2
2015-May-21 15:04N 39°06' W 084°51'2 4.3
2015-May-21 14:33N 39°07' W 084°48'4 4.1
2015-May-21 13:33N 39°08' W 084°43'5 5.2
2015-May-21 12:33N 39°05' W 084°38'3 2.7
2015-May-21 11:33N 39°05' W 084°34'2 2.1
2015-May-21 10:33N 39°06' W 084°32'4 4.5
2015-May-21 09:33N 39°06' W 084°26'5 4.8
2015-May-21 08:33N 39°02' W 084°22'5 5.4
2015-May-21 07:33N 38°58' W 084°18'6 5.8
2015-May-21 06:32N 38°53' W 084°14'0 0.1
2015-May-21 05:32N 38°53' W 084°14'1 0.6
2015-May-21 04:33N 38°52' W 084°14'0 0.4
2015-May-21 03:33N 38°53' W 084°14'2 2.3
2015-May-21 02:33N 38°50' W 084°14'4 3.7
2015-May-21 01:29N 38°48' W 084°10'2 1.6
2015-May-21 00:27N 38°47' W 084°08'14 4.6
2015-May-20 21:30N 38°45' W 083°51'  
Track history (hours):
 
Tides and Currents Weather Stations Pressure Air Temp Water Temp Dewpoint Dewpoint Depression Visibility Wind Speed Wind Dir Waves Ship Positions

Paula Ruble

Owner: Crounse Corporation, Maysville, KY. More information available from US FCC via Universal Licensing System and Coast Guard Vessel Documentation Center.

Last reported at 2015-May-23 15:25 UTC. Time now 2015-May-24 23:23 UTC.
Position N 38°38' W 083°41'.

Length 42 m.

Type: Tow > 200 m length. MMSI: 367426860.

Date/timePositionNaut miles runAvg speedWind from/ knotsBaromVisibWave heightAir tempDewpointWater temp
2015-May-23 15:25N 38°38' W 083°41'7 3.5
2015-May-23 13:27N 38°42' W 083°48'3 3.6
2015-May-23 12:32N 38°44' W 083°51'4 3.8
2015-May-23 11:33N 38°46' W 083°55'4 3.7
2015-May-23 10:27N 38°47' W 084°00'4 4.2
2015-May-23 09:33N 38°46' W 084°05'4 4.2
2015-May-23 08:33N 38°48' W 084°10'0 0.5
2015-May-23 07:33N 38°48' W 084°11'3 3.1
2015-May-23 06:32N 38°50' W 084°14'3 3.5
2015-May-23 05:33N 38°53' W 084°14'3 3.3
2015-May-23 04:33N 38°56' W 084°16'3 3.4
2015-May-23 03:33N 38°59' W 084°18'3 3.3
2015-May-23 02:32N 39°02' W 084°21'4 3.6
2015-May-23 01:33N 39°03' W 084°25'3 3.4
2015-May-23 00:33N 39°06' W 084°26'3 2.5
2015-May-22 23:33N 39°06' W 084°30'3 3.0
2015-May-22 22:33N 39°06' W 084°33'3 3.4
2015-May-22 21:33N 39°04' W 084°37'4 3.6
2015-May-22 20:33N 39°06' W 084°41'4 3.7
2015-May-22 19:33N 39°09' W 084°45'5 0.2
2015-May-21 15:04N 39°06' W 084°51'2 4.3
2015-May-21 14:33N 39°07' W 084°48'4 4.1
2015-May-21 13:33N 39°08' W 084°43'5 5.2
2015-May-21 12:33N 39°05' W 084°38'3 2.7
2015-May-21 11:33N 39°05' W 084°34'2 2.1
2015-May-21 10:33N 39°06' W 084°32'4 4.5
2015-May-21 09:33N 39°06' W 084°26'5 4.8
2015-May-21 08:33N 39°02' W 084°22'5 5.4
2015-May-21 07:33N 38°58' W 084°18'6 5.8
2015-May-21 06:32N 38°53' W 084°14'0 0.1
2015-May-21 05:32N 38°53' W 084°14'1 0.6
2015-May-21 04:33N 38°52' W 084°14'0 0.4
2015-May-21 03:33N 38°53' W 084°14'2 2.3
2015-May-21 02:33N 38°50' W 084°14'4 3.7
2015-May-21 01:29N 38°48' W 084°10'2 1.6
2015-May-21 00:27N 38°47' W 084°08'14 4.6
2015-May-20 21:30N 38°45' W 083°51'  

Dump ship's entire track history